Sertania, Brazil
Current Conditions -  °F | °C
As of 12:00 PM on Thursday 30 Oct 2014 (Local Time) from SBKG Reporting Station
Scattered Clouds Scattered Clouds  
Wind Chill: 84°   Ceiling: Unl
Heat Index: 85°   Visibility: 6mi
Dew Point: 63°   Wind: 18mph
Humidity: 48%   Direction: 110°ESE
Pressure: 30"   Gusts: 30mph
Location:  8.07°S, 37.26°W
Report Text: SBKG 301500Z 11016G26KT 9999 SCT040 29/17 Q1016
Loading
Personal Weather Stations






























Interactive Weather Map
Tropical Storm Tracking
New forecast layout! Learn more

10-Day Weather Forecast

Advertisements
Track Severe Weather on mobile